Accueil
METAR-TAF:

METAR-TAF

Aéroports :

Aéroport de Southampton

Southampton, Angleterre

latitude: 50-54N, longitude: 001-24W, altitude: 9 m

Observation

Le bulletin a été fait il y a 3 heures et 31 minutes, à 22:50 UTC
Vent 4 kt de ouest
Température 7°C
Humidité 81%
Pression 1023 hPa
Visibilité 10 km ou plus
pas de nuages en-dessous de 1500 mètres et pas de cumulonimbus.

METAR: EGHI 092250Z 27004KT CAVOK 07/04 Q1023

Heure: 02:21 (02:21 UTC)

Prévision

Le bulletin a été fait il y a 6 heures et 12 minutes, à 20:09 UTC
Prévision valable du 09 à 21 UTC au 09 à 23 UTC
Vent 7 kt de ouest/nord-ouest
Visibilité 10 km ou plus
Nuages épars à une hauteur de 2500 ft

TAF: EGHI 092009Z 0921/0923 29007KT 9999 SCT025

Observations et prévisions météorologiques de plus de 4000 aéroports (messages METAR et TAF).

Les stations disponibles sont représentées par des disques jaunes et rouges sur la carte.

Passer la souris dessus pour voir le nom de la station.

Cliquer dessus pour voir les observations et prévisions météorologiques.

Pour changer de carte: cliquez sur les boutons verts avec une croix noire pour zoomer, sur le bouton vert avec un tiret pour effectuer un zoom arrière, ou sur les flèches vertes pour les cartes adjacentes.


METAR-TAF: